createdAt,value
2019-05-15T00:00:38.444Z,62.14
2019-05-15T00:03:04.986Z,62.12
2019-05-15T00:05:31.760Z,62.07
2019-05-15T00:07:59.282Z,62.41
2019-05-15T00:10:26.165Z,62.52
2019-05-15T00:12:52.842Z,63.05
2019-05-15T00:15:19.634Z,63.59
2019-05-15T00:17:48.580Z,63.85
2019-05-15T00:20:15.214Z,64.93
2019-05-15T00:22:41.785Z,65.16
2019-05-15T00:25:09.348Z,64.82
2019-05-15T00:27:38.606Z,65.70
2019-05-15T00:30:05.902Z,65.26
2019-05-15T00:32:32.474Z,66.00
2019-05-15T00:34:59.367Z,65.22
2019-05-15T00:37:25.942Z,65.30
2019-05-15T00:39:52.640Z,64.33
2019-05-15T00:42:19.525Z,64.49
2019-05-15T00:44:46.351Z,64.26
2019-05-15T00:47:13.138Z,63.67
2019-05-15T00:49:39.816Z,63.48
2019-05-15T00:52:11.771Z,63.86
2019-05-15T00:54:35.392Z,63.83
2019-05-15T00:57:02.204Z,64.10
2019-05-15T00:59:29.947Z,63.86
2019-05-15T01:01:59.298Z,63.97
2019-05-15T01:04:27.961Z,66.13
2019-05-15T01:06:54.307Z,68.07
2019-05-15T01:09:23.584Z,68.90
2019-05-15T01:11:50.371Z,70.91
2019-05-15T01:14:18.617Z,72.12
2019-05-15T01:16:45.605Z,72.05
2019-05-15T01:19:14.990Z,72.40
2019-05-15T01:21:40.889Z,72.14
2019-05-15T01:24:08.435Z,72.21
2019-05-15T01:26:35.287Z,72.14
2019-05-15T01:29:02.084Z,72.32
2019-05-15T01:31:28.793Z,71.82
2019-05-15T01:33:55.465Z,71.33
2019-05-15T01:36:22.305Z,73.01
2019-05-15T01:38:49.012Z,73.38
2019-05-15T01:41:15.719Z,74.64
2019-05-15T01:43:42.530Z,74.78
2019-05-15T01:46:09.125Z,74.88
2019-05-15T01:48:35.919Z,75.42
2019-05-15T01:51:04.498Z,76.22
2019-05-15T01:53:31.097Z,76.61
2019-05-15T01:55:58.930Z,76.51
2019-05-15T01:58:25.825Z,75.90
2019-05-15T02:00:52.505Z,75.85
2019-05-15T02:03:19.280Z,73.90
2019-05-15T02:05:48.063Z,72.79
2019-05-15T02:08:14.848Z,71.99
2019-05-15T02:10:41.505Z,70.83
2019-05-15T02:13:08.759Z,71.01
2019-05-15T02:15:35.719Z,71.19
2019-05-15T02:18:02.510Z,71.53
2019-05-15T02:20:29.301Z,71.37
2019-05-15T02:22:55.975Z,71.30
2019-05-15T02:25:22.650Z,70.96
2019-05-15T02:27:49.342Z,70.81
2019-05-15T02:30:27.996Z,70.97
2019-05-15T02:32:44.800Z,71.15
2019-05-15T02:35:11.577Z,71.57
2019-05-15T02:37:41.152Z,72.28
2019-05-15T02:40:09.872Z,73.60
2019-05-15T02:42:35.830Z,76.42
2019-05-15T02:45:02.882Z,77.13
2019-05-15T02:47:29.662Z,77.34
2019-05-15T02:49:59.125Z,76.98
2019-05-15T02:52:25.147Z,77.84
2019-05-15T02:54:51.911Z,78.39
2019-05-15T02:57:19.266Z,79.01
2019-05-15T02:59:49.532Z,79.20
2019-05-15T03:02:15.242Z,79.42
2019-05-15T03:04:42.045Z,79.51
2019-05-15T03:07:09.614Z,79.92
2019-05-15T03:09:39.704Z,79.88
2019-05-15T03:12:05.449Z,80.18
2019-05-15T03:14:32.288Z,80.61
2019-05-15T03:16:59.726Z,80.95
2019-05-15T03:19:29.531Z,81.21
2019-05-15T03:21:55.365Z,81.03
2019-05-15T03:24:22.033Z,80.90
2019-05-15T03:26:49.621Z,80.62
2019-05-15T03:29:16.635Z,80.34
2019-05-15T03:32:00.875Z,80.33
2019-05-15T03:34:21.402Z,80.16
2019-05-15T03:36:45.454Z,80.40
2019-05-15T03:39:09.771Z,80.77
2019-05-15T03:41:39.308Z,81.09
2019-05-15T03:44:05.373Z,81.46
2019-05-15T03:46:32.048Z,81.83
2019-05-15T03:49:00.353Z,82.23
2019-05-15T03:51:29.006Z,82.08
2019-05-15T03:53:55.908Z,81.67
2019-05-15T03:56:22.675Z,81.27
2019-05-15T03:58:49.609Z,80.72
2019-05-15T04:01:32.532Z,80.51
2019-05-15T04:03:45.013Z,80.45
2019-05-15T04:06:11.827Z,80.59
2019-05-15T04:08:39.376Z,80.38
2019-05-15T04:11:08.894Z,79.79
2019-05-15T04:13:35.010Z,79.20
2019-05-15T04:16:01.872Z,78.99
2019-05-15T04:18:29.293Z,78.79
2019-05-15T04:20:56.142Z,78.46
2019-05-15T04:23:22.990Z,78.31
2019-05-15T04:25:51.157Z,78.12
2019-05-15T04:28:20.091Z,78.00
2019-05-15T04:30:49.465Z,78.39
2019-05-15T04:33:15.751Z,78.59
2019-05-15T04:35:42.421Z,79.02
2019-05-15T04:38:09.699Z,79.19
2019-05-15T04:40:39.714Z,79.38
2019-05-15T04:43:05.390Z,78.83
2019-05-15T04:45:35.156Z,79.04
2019-05-15T04:48:00.963Z,78.83
2019-05-15T04:50:28.709Z,78.58
2019-05-15T04:52:59.032Z,78.71
2019-05-15T04:55:24.311Z,78.56
2019-05-15T04:57:51.122Z,78.37
2019-05-15T05:00:35.659Z,78.13
2019-05-15T05:03:02.641Z,77.77
2019-05-15T05:05:29.711Z,77.73
2019-05-15T05:07:59.601Z,77.53
2019-05-15T05:10:28.394Z,76.64
2019-05-15T05:12:54.443Z,75.05
2019-05-15T05:15:21.635Z,74.37
2019-05-15T05:17:49.006Z,73.26
2019-05-15T05:20:17.856Z,70.90
2019-05-15T05:22:44.676Z,69.34
2019-05-15T05:25:11.361Z,67.83
2019-05-15T05:27:38.576Z,65.10
2019-05-15T05:30:08.161Z,62.05
2019-05-15T05:32:35.288Z,58.63
2019-05-15T05:35:02.882Z,55.23
2019-05-15T05:37:29.463Z,51.46
2019-05-15T05:39:57.726Z,49.48
2019-05-15T05:42:24.551Z,44.54
2019-05-15T05:44:51.262Z,43.35
2019-05-15T05:47:18.350Z,40.85
2019-05-15T05:50:04.749Z,38.57
2019-05-15T05:52:31.512Z,38.20
2019-05-15T05:54:58.341Z,36.17
2019-05-15T05:57:25.007Z,35.29
2019-05-15T05:59:51.708Z,36.94
2019-05-15T06:02:18.671Z,35.00
2019-05-15T06:04:47.816Z,33.00
2019-05-15T06:07:14.518Z,32.97
2019-05-15T06:09:41.310Z,32.49
2019-05-15T06:12:08.091Z,32.25
2019-05-15T06:14:34.776Z,31.65
2019-05-15T06:17:01.447Z,31.69
2019-05-15T06:19:31.227Z,31.30
2019-05-15T06:22:00.731Z,30.31
2019-05-15T06:24:25.209Z,28.98
2019-05-15T06:26:51.878Z,28.53
2019-05-15T06:29:18.696Z,30.21
2019-05-15T06:31:45.484Z,28.26
2019-05-15T06:34:12.276Z,25.53
2019-05-15T06:36:39.394Z,25.67
2019-05-15T06:39:08.446Z,26.68
2019-05-15T06:41:35.147Z,29.11
2019-05-15T06:44:02.198Z,27.86
2019-05-15T06:46:28.900Z,25.48
2019-05-15T06:48:57.703Z,25.93
2019-05-15T06:51:24.558Z,24.29
2019-05-15T06:53:51.123Z,23.05
2019-05-15T06:56:18.816Z,24.80
2019-05-15T06:58:45.702Z,25.67
2019-05-15T07:01:12.582Z,25.15
2019-05-15T07:03:39.649Z,23.81
2019-05-15T07:06:09.062Z,24.95
2019-05-15T07:08:34.937Z,26.72
2019-05-15T07:11:01.737Z,24.31
2019-05-15T07:13:29.165Z,25.97
2019-05-15T07:15:58.372Z,23.04
2019-05-15T07:18:24.740Z,23.48
2019-05-15T07:20:51.526Z,25.06
2019-05-15T07:23:18.860Z,23.70
2019-05-15T07:25:45.902Z,25.88
2019-05-15T07:28:12.568Z,23.24
2019-05-15T07:30:41.099Z,23.69
2019-05-15T07:33:08.747Z,24.62
2019-05-15T07:35:38.454Z,26.94
2019-05-15T07:38:07.843Z,24.51
2019-05-15T07:40:34.193Z,22.90
2019-05-15T07:43:01.064Z,22.01
2019-05-15T07:45:28.341Z,20.65
2019-05-15T07:47:55.216Z,20.06
2019-05-15T07:50:22.099Z,22.03
2019-05-15T07:52:48.879Z,20.52
2019-05-15T07:55:18.322Z,20.15
2019-05-15T07:57:44.334Z,19.74
2019-05-15T08:00:13.310Z,20.25
2019-05-15T08:02:40.071Z,19.91
2019-05-15T08:05:09.056Z,20.39
2019-05-15T08:07:38.593Z,19.78
2019-05-15T08:10:05.281Z,18.52
2019-05-15T08:12:32.042Z,18.79
2019-05-15T08:14:58.755Z,16.37
2019-05-15T08:17:25.522Z,15.88
2019-05-15T08:19:52.292Z,18.31
2019-05-15T08:22:18.976Z,20.84
2019-05-15T08:24:48.278Z,20.15
2019-05-15T08:27:14.335Z,18.95
2019-05-15T08:29:41.227Z,19.59
2019-05-15T08:32:08.479Z,18.78
2019-05-15T08:34:35.324Z,20.93
2019-05-15T08:37:01.920Z,19.35
2019-05-15T08:39:28.630Z,18.08
2019-05-15T08:41:55.315Z,17.35
2019-05-15T08:44:22.167Z,16.50
2019-05-15T08:46:48.758Z,15.04
2019-05-15T08:49:15.482Z,14.51
2019-05-15T08:51:42.171Z,15.00
2019-05-15T08:54:08.848Z,13.91
2019-05-15T08:56:55.474Z,13.47
2019-05-15T08:59:22.244Z,13.17
2019-05-15T09:01:49.136Z,13.71
2019-05-15T09:04:27.889Z,15.77
2019-05-15T09:06:44.727Z,15.73
2019-05-15T09:09:11.400Z,17.42
2019-05-15T09:11:39.170Z,16.79
2019-05-15T09:14:08.163Z,17.74
2019-05-15T09:16:34.866Z,16.15
2019-05-15T09:19:01.805Z,14.76
2019-05-15T09:21:28.676Z,13.65
2019-05-15T09:23:55.339Z,13.01
2019-05-15T09:26:22.251Z,15.05
2019-05-15T09:28:49.500Z,14.42
2019-05-15T09:31:16.239Z,14.70
2019-05-15T09:33:44.875Z,12.68
2019-05-15T09:36:11.576Z,12.68
2019-05-15T09:38:39.073Z,13.60
2019-05-15T09:41:08.676Z,14.96
2019-05-15T09:43:34.851Z,15.14
2019-05-15T09:46:01.649Z,13.98
2019-05-15T09:48:28.855Z,14.32
2019-05-15T09:50:58.516Z,16.02
2019-05-15T09:53:24.571Z,18.22
2019-05-15T09:55:51.347Z,16.11
2019-05-15T09:58:20.382Z,15.29
2019-05-15T10:00:52.273Z,13.99
2019-05-15T10:03:15.668Z,13.57
2019-05-15T10:05:42.585Z,14.34
2019-05-15T10:08:09.403Z,15.41
2019-05-15T10:10:38.016Z,13.48
2019-05-15T10:13:05.041Z,14.52
2019-05-15T10:15:31.806Z,16.20
2019-05-15T10:17:59.686Z,14.59
2019-05-15T10:20:28.954Z,12.71
2019-05-15T10:22:55.497Z,11.67
2019-05-15T10:25:22.266Z,13.70
2019-05-15T10:27:49.075Z,13.78
2019-05-15T10:30:18.687Z,15.17
2019-05-15T10:32:44.777Z,15.30
2019-05-15T10:35:24.542Z,14.74
2019-05-15T10:37:40.441Z,13.66
2019-05-15T10:40:09.263Z,12.68
2019-05-15T10:42:36.119Z,12.68
2019-05-15T10:45:04.168Z,13.95
2019-05-15T10:47:30.869Z,13.97
2019-05-15T10:49:59.942Z,13.83
2019-05-15T10:52:28.593Z,13.70
2019-05-15T10:54:54.862Z,11.57
2019-05-15T10:57:21.696Z,11.99
2019-05-15T10:59:48.273Z,12.72
2019-05-15T11:02:15.051Z,13.49
2019-05-15T11:04:41.741Z,13.20
2019-05-15T11:07:09.810Z,12.49
2019-05-15T11:09:37.514Z,13.10
2019-05-15T11:12:05.817Z,13.14
2019-05-15T11:14:32.588Z,12.51
2019-05-15T11:16:59.273Z,14.66
2019-05-15T11:19:35.615Z,14.66
2019-05-15T11:21:54.432Z,14.17
2019-05-15T11:24:21.135Z,13.79
2019-05-15T11:26:49.971Z,13.03
2019-05-15T11:29:16.684Z,13.09
2019-05-15T11:31:43.361Z,12.76
2019-05-15T11:34:10.262Z,10.71
2019-05-15T11:36:38.692Z,14.15
2019-05-15T11:39:08.237Z,15.50
2019-05-15T11:41:34.629Z,13.34
2019-05-15T11:44:01.497Z,13.79
2019-05-15T11:46:29.089Z,14.24
2019-05-15T11:48:58.685Z,15.79
2019-05-15T11:51:24.726Z,16.59
2019-05-15T11:53:51.465Z,17.88
2019-05-15T11:56:18.910Z,18.84
2019-05-15T11:58:45.809Z,18.03
2019-05-15T12:01:12.602Z,15.28
2019-05-15T12:03:59.067Z,14.05
2019-05-15T12:06:25.813Z,13.82
2019-05-15T12:08:52.517Z,14.46
2019-05-15T12:11:31.849Z,15.39
2019-05-15T12:13:48.117Z,17.36
2019-05-15T12:16:14.782Z,18.85
2019-05-15T12:18:41.985Z,18.27
2019-05-15T12:21:08.996Z,18.53
2019-05-15T12:23:38.105Z,18.65
2019-05-15T12:26:04.478Z,17.67
2019-05-15T12:28:31.098Z,15.80
2019-05-15T12:30:59.674Z,12.81
2019-05-15T12:33:28.923Z,11.32
2019-05-15T12:35:55.190Z,12.25
2019-05-15T12:38:21.892Z,13.70
2019-05-15T13:00:38.867Z,12.18
2019-05-15T13:03:05.543Z,13.97
2019-05-15T13:05:32.701Z,13.99
2019-05-15T13:07:59.563Z,14.63
2019-05-15T13:10:28.611Z,13.84
2019-05-15T13:13:01.341Z,12.76
2019-05-15T13:15:23.563Z,12.01
2019-05-15T13:17:52.627Z,11.65
2019-05-15T13:20:19.044Z,11.98
2019-05-15T13:25:14.308Z,10.67
2019-05-15T13:27:41.094Z,10.67
2019-05-15T13:30:09.210Z,11.83
2019-05-15T13:32:36.425Z,12.91
2019-05-15T13:35:04.044Z,12.45
2019-05-15T13:37:31.158Z,13.10
2019-05-15T13:39:58.696Z,14.95
2019-05-15T13:42:27.938Z,13.73
2019-05-15T13:44:54.276Z,13.67
2019-05-15T13:47:20.950Z,15.46
2019-05-15T13:49:48.135Z,15.63
2019-05-15T13:52:15.019Z,14.07
2019-05-15T13:54:41.717Z,14.87
2019-05-15T13:57:08.899Z,16.59
2019-05-15T13:59:35.579Z,18.82
2019-05-15T14:02:02.372Z,20.69
2019-05-15T14:04:29.910Z,22.15
2019-05-15T14:06:57.852Z,20.90
2019-05-15T14:09:24.654Z,19.59
2019-05-15T14:11:51.405Z,19.30
2019-05-15T14:14:18.191Z,18.05
2019-05-15T14:16:44.964Z,16.61
2019-05-15T14:19:11.742Z,15.45
2019-05-15T14:21:38.528Z,14.48
2019-05-15T14:24:05.307Z,14.77
2019-05-15T14:26:32.500Z,14.56
2019-05-15T14:28:59.187Z,14.49
2019-05-15T14:31:27.900Z,14.86
2019-05-15T14:33:54.461Z,15.17
2019-05-15T14:36:21.301Z,16.74
2019-05-15T14:38:48.524Z,18.37
2019-05-15T14:41:15.587Z,19.53
2019-05-15T14:43:43.506Z,21.55
2019-05-15T14:46:10.059Z,21.64
2019-05-15T14:48:38.593Z,20.90
2019-05-15T14:51:05.415Z,19.06
2019-05-15T14:53:32.190Z,17.17
2019-05-15T14:56:20.463Z,16.71
2019-05-15T14:58:48.058Z,16.02
2019-05-15T15:01:15.098Z,17.42
2019-05-15T15:03:41.779Z,17.31
2019-05-15T15:06:08.802Z,18.61
2019-05-15T15:08:35.495Z,20.76
2019-05-15T15:11:02.448Z,22.99
2019-05-15T15:13:29.398Z,23.66
2019-05-15T15:15:56.191Z,22.56
2019-05-15T15:20:49.273Z,22.13
2019-05-15T15:23:15.925Z,21.06
2019-05-15T15:25:42.499Z,21.25
2019-05-15T15:28:09.051Z,22.46
2019-05-15T15:30:37.775Z,21.76
2019-05-15T15:33:04.527Z,21.94
2019-05-15T15:35:31.336Z,23.37
2019-05-15T15:37:58.161Z,24.74
2019-05-15T15:40:24.914Z,24.68
2019-05-15T15:42:51.479Z,23.85
2019-05-15T15:45:19.342Z,24.65
2019-05-15T15:47:48.087Z,25.36
2019-05-15T15:50:18.104Z,26.37
2019-05-15T15:52:44.463Z,24.69
2019-05-15T15:55:11.625Z,24.50
2019-05-15T15:57:39.847Z,24.01
2019-05-15T16:00:08.830Z,24.93
2019-05-15T16:02:35.788Z,24.99
2019-05-15T16:05:02.726Z,26.17
2019-05-15T16:07:29.830Z,26.03
2019-05-15T16:09:58.755Z,27.83
2019-05-15T16:12:27.690Z,28.24
2019-05-15T16:14:54.119Z,29.58
2019-05-15T16:17:28.479Z,30.62
2019-05-15T16:19:54.698Z,30.99
2019-05-15T16:22:21.525Z,31.78
2019-05-15T16:25:09.819Z,31.14
2019-05-15T16:27:38.247Z,36.07
2019-05-15T16:30:08.299Z,34.52
2019-05-15T16:32:34.611Z,35.32
2019-05-15T16:35:01.200Z,37.58
2019-05-15T16:37:28.329Z,34.96
2019-05-15T16:39:57.812Z,33.28
2019-05-15T16:42:23.992Z,32.56
2019-05-15T16:44:50.567Z,32.50
2019-05-15T16:47:18.599Z,31.10
2019-05-15T16:49:45.324Z,30.87
2019-05-15T16:52:12.120Z,30.28
2019-05-15T16:54:38.770Z,31.51
2019-05-15T16:57:05.592Z,31.07
2019-05-15T16:59:35.790Z,30.44
2019-05-15T17:02:00.947Z,30.36
2019-05-15T17:04:28.800Z,29.83
2019-05-15T17:06:55.709Z,29.88
2019-05-15T17:09:22.539Z,29.36
2019-05-15T17:11:49.330Z,29.60
2019-05-15T17:14:16.002Z,30.33
2019-05-15T17:16:42.850Z,31.07
2019-05-15T17:19:09.606Z,31.09
2019-05-15T17:21:36.286Z,31.24
2019-05-15T17:24:04.262Z,31.97
2019-05-15T17:26:31.125Z,30.82
2019-05-15T17:28:58.301Z,29.86
2019-05-15T17:31:25.066Z,30.03
2019-05-15T17:33:51.628Z,30.42
2019-05-15T17:36:18.715Z,31.61
2019-05-15T17:38:45.436Z,31.15
2019-05-15T17:41:12.238Z,30.65
2019-05-15T17:43:38.963Z,32.49
2019-05-15T17:46:08.696Z,31.98
2019-05-15T17:48:34.829Z,30.81
2019-05-15T17:51:01.391Z,31.91
2019-05-15T17:53:28.827Z,32.18
2019-05-15T17:55:55.819Z,33.43
2019-05-15T17:58:22.624Z,31.40
2019-05-15T18:00:49.400Z,31.75
2019-05-15T18:03:16.108Z,33.68
2019-05-15T18:05:42.774Z,31.96
2019-05-15T18:08:09.459Z,31.54
2019-05-15T18:10:38.345Z,31.98
2019-05-15T18:13:04.843Z,32.22
2019-05-15T18:15:31.940Z,32.79
2019-05-15T18:17:59.520Z,32.62
2019-05-15T18:20:29.164Z,33.90
2019-05-15T18:22:55.375Z,34.12
2019-05-15T18:25:22.286Z,34.41
2019-05-15T18:27:48.991Z,33.15
2019-05-15T18:30:18.148Z,33.92
2019-05-15T18:32:44.780Z,34.74
2019-05-15T18:35:11.665Z,34.58
2019-05-15T18:37:39.316Z,34.89
2019-05-15T18:40:10.057Z,34.77
2019-05-15T18:42:38.655Z,34.85
2019-05-15T18:45:04.889Z,35.61
2019-05-15T18:47:31.647Z,35.90
2019-05-15T18:50:05.233Z,36.22
2019-05-15T18:52:28.747Z,35.93
2019-05-15T18:54:58.569Z,35.68
2019-05-15T18:57:24.882Z,35.63
2019-05-15T18:59:51.678Z,35.99
2019-05-15T19:02:19.196Z,35.11
2019-05-15T19:04:46.171Z,36.39
2019-05-15T19:07:12.924Z,35.68
2019-05-15T19:09:39.608Z,36.49
2019-05-15T19:12:09.235Z,36.03
2019-05-15T19:14:37.026Z,37.01
2019-05-15T19:17:04.015Z,37.73
2019-05-15T19:19:30.739Z,37.45
2019-05-15T19:21:58.246Z,38.27
2019-05-15T19:24:25.111Z,39.55
2019-05-15T19:26:51.792Z,40.18
2019-05-15T19:29:18.682Z,39.76
2019-05-15T19:31:45.306Z,40.94
2019-05-15T19:34:12.112Z,42.96
2019-05-15T19:36:38.796Z,43.27
2019-05-15T19:39:07.939Z,45.96
2019-05-15T19:41:34.389Z,45.83
2019-05-15T19:44:01.096Z,46.04
2019-05-15T19:46:28.304Z,47.84
2019-05-15T19:48:55.121Z,47.60
2019-05-15T19:51:21.806Z,45.66
2019-05-15T19:53:48.680Z,43.74
2019-05-15T19:56:15.372Z,45.13
2019-05-15T19:58:42.161Z,44.23
2019-05-15T20:01:08.939Z,43.57
2019-05-15T20:03:47.251Z,43.19
2019-05-15T20:06:04.235Z,43.30
2019-05-15T20:08:30.943Z,43.33
2019-05-15T20:10:59.321Z,43.14
2019-05-15T20:13:28.855Z,43.44
2019-05-15T20:15:55.103Z,42.69
2019-05-15T20:18:21.783Z,41.69
2019-05-15T20:20:48.437Z,41.97
2019-05-15T20:23:15.174Z,41.54
2019-05-15T20:25:41.862Z,41.91
2019-05-15T20:28:08.612Z,42.01
2019-05-15T20:30:35.424Z,42.05
2019-05-15T20:33:02.180Z,41.33
2019-05-15T20:35:29.141Z,41.11
2019-05-15T20:37:58.039Z,40.21
2019-05-15T20:40:24.487Z,40.15
2019-05-15T20:42:51.246Z,40.64
2019-05-15T20:45:18.657Z,41.03
2019-05-15T20:47:45.540Z,40.99
2019-05-15T20:50:12.437Z,40.78
2019-05-15T20:52:39.805Z,41.30
2019-05-15T20:55:08.070Z,41.91
2019-05-15T20:57:37.602Z,42.46
2019-05-15T21:00:05.237Z,40.78
2019-05-15T21:02:31.989Z,39.37
2019-05-15T21:05:00.638Z,40.07
2019-05-15T21:07:38.637Z,40.15
2019-05-15T21:09:58.674Z,39.50
2019-05-15T21:12:27.060Z,40.54
2019-05-15T21:14:53.790Z,40.12
2019-05-15T21:17:20.461Z,38.79
2019-05-15T21:19:48.949Z,39.70
2019-05-15T21:22:17.931Z,39.46
2019-05-15T21:24:44.126Z,39.83
2019-05-15T21:27:10.827Z,39.49
2019-05-15T21:29:38.167Z,38.57
2019-05-15T21:32:08.323Z,39.47
2019-05-15T21:34:40.713Z,38.80
2019-05-15T21:37:03.379Z,39.19
2019-05-15T21:39:30.380Z,39.39
2019-05-15T21:41:58.325Z,39.96
2019-05-15T21:44:25.309Z,40.43
2019-05-15T21:46:51.853Z,41.21
2019-05-15T21:49:19.179Z,40.75
2019-05-15T21:51:47.892Z,41.05
2019-05-15T21:54:14.724Z,40.95
2019-05-15T21:56:41.623Z,40.91
2019-05-15T21:59:08.489Z,40.67
2019-05-15T22:01:35.508Z,41.24
2019-05-15T22:04:02.286Z,41.74
2019-05-15T22:06:29.413Z,42.78
2019-05-15T22:08:58.375Z,42.14
2019-05-15T22:11:25.145Z,42.61
2019-05-15T22:13:51.989Z,43.22
2019-05-15T22:16:19.672Z,42.73
2019-05-15T22:18:47.845Z,42.49
2019-05-15T22:21:14.880Z,43.77
2019-05-15T22:23:41.547Z,42.69
2019-05-15T22:26:08.344Z,42.34
2019-05-15T22:28:35.117Z,43.78
2019-05-15T22:31:02.746Z,43.57
2019-05-15T22:33:29.767Z,43.45
2019-05-15T22:35:56.870Z,43.23
2019-05-15T22:38:25.121Z,42.98
2019-05-15T22:40:51.894Z,43.43
2019-05-15T22:43:18.701Z,43.15
2019-05-15T22:45:45.571Z,42.72
2019-05-15T22:48:12.323Z,42.90
2019-05-15T22:50:39.107Z,43.88
2019-05-15T22:53:05.874Z,43.07
2019-05-15T22:55:32.643Z,42.85
2019-05-15T22:58:00.552Z,42.99
2019-05-15T23:00:28.877Z,43.55
2019-05-15T23:02:58.004Z,43.54
2019-05-15T23:05:28.404Z,44.47
2019-05-15T23:07:53.208Z,44.27
2019-05-15T23:10:20.234Z,44.03
2019-05-15T23:12:48.682Z,44.28
2019-05-15T23:15:15.705Z,44.02
2019-05-15T23:17:42.365Z,44.77
2019-05-15T23:20:09.753Z,44.54
2019-05-15T23:22:38.587Z,44.90
2019-05-15T23:25:05.734Z,45.12
2019-05-15T23:27:32.456Z,45.73
2019-05-15T23:29:59.154Z,45.85
2019-05-15T23:32:25.839Z,44.88
2019-05-15T23:34:52.639Z,45.49
2019-05-15T23:37:19.433Z,45.08
2019-05-15T23:39:48.556Z,44.40
2019-05-15T23:42:14.871Z,44.30
2019-05-15T23:44:41.653Z,44.31
2019-05-15T23:47:08.339Z,44.33
2019-05-15T23:49:35.003Z,45.10
2019-05-15T23:52:01.694Z,45.26
2019-05-15T23:54:28.376Z,45.18
2019-05-15T23:56:58.374Z,45.56
2019-05-15T23:59:25.623Z,43.83
